Time;durP1;ratioP1;P1;durP2;ratioP2;P2;SDS_P1;SDS_P2;PMS_P1;PMS_P2;Temp;Humidity;BMP_temperature;BMP_pressure;BME280_temperature;BME280_humidity;BME280_pressure;Samples;Min_cycle;Max_cycle;Signal;HPM_P1;HPM_P2
2023/08/02 00:00:21;;;;;;;;;;;;;;;;;;1265680;23;19920;-83
2023/08/02 00:00:51;;;;;;;;;;;;;;;;;;1265327;23;19973;-83
2023/08/02 00:01:21;;;;;;;;;;;;;;;;;;1265325;23;20326;-83
2023/08/02 00:01:52;;;;;;;;;;;;;;;;;;1265292;23;19909;-83
2023/08/02 00:02:22;;;;;;;;;;;;;;;;;;1259449;23;19905;-83
2023/08/02 00:02:52;;;;;;;;;;;;;;;;;;1259273;23;19963;-83
2023/08/02 00:03:22;;;;;;;;;;;;;;;;;;1265638;23;19912;-82
2023/08/02 00:03:53;;;;;;;;;;;;;;;;;;1265358;23;19909;-83
2023/08/02 00:04:23;;;;;;;;;;;;;;;;;;1265616;23;20309;-83
2023/08/02 00:04:53;;;;;;;;;;;;;;;;;;1265249;23;19905;-83
2023/08/02 00:05:23;;;;;;;;;;;;;;;;;;1265645;23;19947;-83
2023/08/02 00:05:54;;;;;;;;;;;;;;;;;;1259302;23;19996;-82
2023/08/02 00:06:24;;;;;;;;;;;;;;;;;;1265566;23;19909;-83
2023/08/02 00:06:55;;;;;;;;;;;;;;;;;;1265341;23;20257;-83
2023/08/02 00:07:25;;;;;;;;;;;;;;;;;;1265574;23;19907;-83
2023/08/02 00:07:55;;;;;;;;;;;;;;;;;;1265392;23;19905;-83
2023/08/02 00:08:25;;;;;;;;;;;;;;;;;;1265624;23;19990;-83
2023/08/02 00:08:55;;;;;;;;;;;;;;;;;;1265430;23;20264;-82
2023/08/02 00:09:27;;;;;;;;;;;;;;;;;;1265983;23;19951;-83
2023/08/02 00:09:57;;;;;;;;;;;;;;;;;;1265399;23;19905;-83
2023/08/02 00:10:27;;;;;;;;;;;;;;;;;;1265584;23;19913;-83
2023/08/02 00:10:57;;;;;;;;;;;;;;;;;;1265445;23;20269;-83
2023/08/02 00:11:28;;;;;;;;;;;;;;;;;;1268350;23;20344;-83
2023/08/02 00:11:58;;;;;;;;;;;;;;;;;;1267325;23;19905;-83
2023/08/02 00:12:28;;;;;;;;;;;;;;;;;;1265508;23;19904;-82
2023/08/02 00:12:58;;;;;;;;;;;;;;;;;;1259299;23;19905;-83
2023/08/02 00:13:29;;;;;;;;;;;;;;;;;;1259446;23;19913;-83
2023/08/02 00:13:59;;;;;;;;;;;;;;;;;;1265306;23;19909;-82
2023/08/02 00:14:29;;;;;;;;;;;;;;;;;;1265592;23;19971;-83
2023/08/02 00:14:59;;;;;;;;;;;;;;;;;;1265248;23;19905;-82
2023/08/02 00:15:30;;;;;;;;;;;;;;;;;;1265485;23;19905;-83
2023/08/02 00:16:00;;;;;;;;;;;;;;;;;;1259338;23;20338;-83
2023/08/02 00:16:30;;;;;;;;;;;;;;;;;;1259563;23;19988;-83
2023/08/02 00:17:00;;;;;;;;;;;;;;;;;;1259373;23;20318;-83
2023/08/02 00:18:11;;;;;;;;;;;;;;;;;;1264451;23;19990;-76
2023/08/02 00:18:41;;;;;;;;;;;;;;;;;;1266068;23;20322;-76
2023/08/02 00:19:11;;;;;;;;;;;;;;;;;;1265799;23;20284;-76
2023/08/02 00:19:41;;;;;;;;;;;;;;;;;;1266108;23;20219;-79
2023/08/02 00:20:12;;;;;;;;;;;;;;;;;;1265784;23;20269;-77
2023/08/02 00:20:42;;;;;;;;;;;;;;;;;;1265944;23;20238;-79
2023/08/02 00:21:12;;;;;;;;;;;;;;;;;;1265866;22;20219;-76
2023/08/02 00:21:42;;;;;;;;;;;;;;;;;;1266079;22;19913;-79
2023/08/02 00:22:47;;;;;;;;;;;;;;;;;;1259268;23;20269;-78
2023/08/02 00:23:17;;;;;;;;;;;;;;;;;;1266367;23;19909;-81
2023/08/02 00:23:47;;;;;;;;;;;;;;;;;;1266860;23;19916;-79
2023/08/02 00:24:17;;;;;;;;;;;;;;;;;;1266090;23;19905;-80
2023/08/02 00:24:47;;;;;;;;;;;;;;;;;;1266102;23;19909;-80
2023/08/02 00:25:18;;;;;;;;;;;;;;;;;;1265800;23;19904;-81
2023/08/02 00:25:48;;;;;;;;;;;;;;;;;;1291237;23;19931;-80
2023/08/02 00:26:18;;;;;;;;;;;;;;;;;;1291285;23;20268;-78
2023/08/02 00:26:49;;;;;;;;;;;;;;;;;;1291345;23;19954;-80
2023/08/02 00:27:19;;;;;;;;;;;;;;;;;;1288686;22;19990;-83
2023/08/02 00:27:49;;;;;;;;;;;;;;;;;;1291301;23;19926;-83
2023/08/02 00:28:19;;;;;;;;;;;;;;;;;;1291177;23;20217;-83
2023/08/02 00:28:49;;;;;;;;;;;;;;;;;;1291208;23;20347;-83
2023/08/02 00:29:20;;;;;;;;;;;;;;;;;;1291575;23;19903;-83
2023/08/02 00:29:50;;;;;;;;;;;;;;;;;;1290947;22;19958;-83
2023/08/02 00:30:20;;;;;;;;;;;;;;;;;;1291163;22;19911;-83
2023/08/02 00:30:50;;;;;;;;;;;;;;;;;;1291024;22;20659;-82
2023/08/02 00:31:21;;;;;;;;;;;;;;;;;;1291205;22;19920;-83
2023/08/02 00:31:51;;;;;;;;;;;;;;;;;;1291060;23;19911;-83
2023/08/02 00:32:21;;;;;;;;;;;;;;;;;;1291239;23;19912;-83
2023/08/02 00:32:51;;;;;;;;;;;;;;;;;;1290746;23;19938;-83
2023/08/02 00:33:22;;;;;;;;;;;;;;;;;;1291338;22;19990;-83
2023/08/02 00:33:52;;;;;;;;;;;;;;;;;;1291463;22;20019;-83
2023/08/02 00:34:22;;;;;;;;;;;;;;;;;;1291169;22;19979;-83
2023/08/02 00:34:54;;;;;;;;;;;;;;;;;;1290954;23;19914;-83
2023/08/02 00:35:24;;;;;;;;;;;;;;;;;;1291312;23;19911;-83
2023/08/02 00:35:55;;;;;;;;;;;;;;;;;;1290987;23;20296;-83
2023/08/02 00:36:25;;;;;;;;;;;;;;;;;;1291718;22;20249;-83
2023/08/02 00:36:55;;;;;;;;;;;;;;;;;;1291426;22;20235;-83
2023/08/02 00:37:56;;;;;;;;;;;;;;;;;;1288598;22;19942;-82
2023/08/02 00:38:26;;;;;;;;;;;;;;;;;;1291311;23;19961;-82
2023/08/02 00:38:56;;;;;;;;;;;;;;;;;;1291018;23;19945;-83
2023/08/02 00:39:26;;;;;;;;;;;;;;;;;;1291693;22;19904;-82
2023/08/02 00:39:57;;;;;;;;;;;;;;;;;;1291401;23;19935;-82
2023/08/02 00:40:27;;;;;;;;;;;;;;;;;;1291648;23;19994;-82
2023/08/02 00:40:57;;;;;;;;;;;;;;;;;;1290909;23;19903;-83
2023/08/02 00:41:27;;;;;;;;;;;;;;;;;;1291083;23;19966;-83
2023/08/02 00:41:57;;;;;;;;;;;;;;;;;;1290783;23;20340;-83
2023/08/02 00:42:28;;;;;;;;;;;;;;;;;;1291106;23;19934;-83
2023/08/02 00:42:58;;;;;;;;;;;;;;;;;;1290991;23;19957;-83
2023/08/02 00:43:28;;;;;;;;;;;;;;;;;;1291321;23;19910;-83
2023/08/02 00:43:58;;;;;;;;;;;;;;;;;;1291022;23;19990;-83
2023/08/02 00:44:29;;;;;;;;;;;;;;;;;;1291112;23;20002;-83
2023/08/02 00:44:59;;;;;;;;;;;;;;;;;;1290971;23;19994;-81
2023/08/02 00:45:29;;;;;;;;;;;;;;;;;;1291162;22;20341;-81
2023/08/02 00:45:59;;;;;;;;;;;;;;;;;;1290942;22;19903;-83
2023/08/02 00:46:30;;;;;;;;;;;;;;;;;;1291273;23;19910;-83
2023/08/02 00:47:00;;;;;;;;;;;;;;;;;;1291055;23;19910;-83
2023/08/02 00:47:30;;;;;;;;;;;;;;;;;;1291131;23;19904;-83
2023/08/02 00:48:00;;;;;;;;;;;;;;;;;;1290910;23;19939;-83
2023/08/02 00:48:31;;;;;;;;;;;;;;;;;;1291378;23;19903;-83
2023/08/02 00:49:01;;;;;;;;;;;;;;;;;;1291006;23;20053;-83
2023/08/02 00:49:31;;;;;;;;;;;;;;;;;;1293151;23;19933;-83
2023/08/02 00:50:01;;;;;;;;;;;;;;;;;;1293163;22;19907;-83
2023/08/02 00:50:32;;;;;;;;;;;;;;;;;;1291271;22;19975;-83
2023/08/02 00:51:02;;;;;;;;;;;;;;;;;;1290850;22;19994;-83
2023/08/02 00:51:32;;;;;;;;;;;;;;;;;;1291298;23;19908;-83
2023/08/02 00:52:02;;;;;;;;;;;;;;;;;;1290908;22;20491;-83
2023/08/02 00:52:33;;;;;;;;;;;;;;;;;;1289580;22;20375;-82
2023/08/02 00:53:03;;;;;;;;;;;;;;;;;;1267111;22;19921;-82
2023/08/02 00:53:33;;;;;;;;;;;;;;;;;;1291421;23;19973;-83
2023/08/02 00:54:05;;;;;;;;;;;;;;;;;;1290992;23;19903;-83
2023/08/02 00:54:35;;;;;;;;;;;;;;;;;;1291257;23;20002;-83
2023/08/02 00:55:05;;;;;;;;;;;;;;;;;;1291022;23;20339;-83
2023/08/02 00:55:36;;;;;;;;;;;;;;;;;;1291349;23;20002;-83
2023/08/02 00:56:06;;;;;;;;;;;;;;;;;;1290790;23;19986;-83
2023/08/02 00:56:36;;;;;;;;;;;;;;;;;;1291115;23;19938;-83
2023/08/02 00:57:06;;;;;;;;;;;;;;;;;;1290831;23;20264;-83
2023/08/02 00:57:37;;;;;;;;;;;;;;;;;;1291030;23;19908;-84
2023/08/02 00:58:07;;;;;;;;;;;;;;;;;;1291010;23;20321;-83
2023/08/02 00:58:37;;;;;;;;;;;;;;;;;;1291116;23;19908;-83
2023/08/02 00:59:07;;;;;;;;;;;;;;;;;;1284696;23;19954;-83
2023/08/02 00:59:38;;;;;;;;;;;;;;;;;;1284807;23;19908;-83
2023/08/02 01:00:08;;;;;;;;;;;;;;;;;;1284609;23;19982;-83
2023/08/02 01:00:39;;;;;;;;;;;;;;;;;;1291128;22;19911;-83
2023/08/02 01:01:09;;;;;;;;;;;;;;;;;;1290874;23;20324;-83
2023/08/02 01:01:39;;;;;;;;;;;;;;;;;;1284806;23;19912;-83
2023/08/02 01:02:09;;;;;;;;;;;;;;;;;;1284780;23;20269;-83
2023/08/02 01:02:39;;;;;;;;;;;;;;;;;;1291003;23;19941;-83
2023/08/02 01:03:10;;;;;;;;;;;;;;;;;;1290846;22;20347;-83
2023/08/02 01:03:40;;;;;;;;;;;;;;;;;;1291248;23;19986;-83
2023/08/02 01:04:10;;;;;;;;;;;;;;;;;;1291077;23;20305;-83
2023/08/02 01:04:40;;;;;;;;;;;;;;;;;;1291160;23;19993;-83
2023/08/02 01:05:11;;;;;;;;;;;;;;;;;;1291058;23;19903;-83
2023/08/02 01:05:41;;;;;;;;;;;;;;;;;;1291233;23;20348;-83
2023/08/02 01:06:11;;;;;;;;;;;;;;;;;;1284559;23;20298;-83
2023/08/02 01:06:42;;;;;;;;;;;;;;;;;;1291261;23;19904;-83
2023/08/02 01:07:12;;;;;;;;;;;;;;;;;;1290927;22;19903;-83
2023/08/02 01:07:42;;;;;;;;;;;;;;;;;;1291011;22;19915;-83
2023/08/02 01:08:12;;;;;;;;;;;;;;;;;;1290925;23;19908;-83
2023/08/02 01:08:43;;;;;;;;;;;;;;;;;;1291150;23;19912;-83
2023/08/02 01:09:13;;;;;;;;;;;;;;;;;;1291065;23;19904;-83
2023/08/02 01:09:43;;;;;;;;;;;;;;;;;;1284820;23;20361;-83
2023/08/02 01:10:13;;;;;;;;;;;;;;;;;;1290959;22;19986;-83
2023/08/02 01:10:43;;;;;;;;;;;;;;;;;;1291240;23;19908;-83
2023/08/02 01:11:14;;;;;;;;;;;;;;;;;;1291021;23;19904;-83
2023/08/02 01:11:44;;;;;;;;;;;;;;;;;;1291084;22;19912;-83
2023/08/02 01:12:15;;;;;;;;;;;;;;;;;;1290929;23;19986;-83
2023/08/02 01:12:45;;;;;;;;;;;;;;;;;;1284766;23;20348;-83
2023/08/02 01:13:15;;;;;;;;;;;;;;;;;;1284886;23;20316;-83
2023/08/02 01:13:45;;;;;;;;;;;;;;;;;;1291109;23;19908;-83
2023/08/02 01:14:16;;;;;;;;;;;;;;;;;;1291051;23;19904;-83
2023/08/02 01:14:46;;;;;;;;;;;;;;;;;;1291477;23;19911;-84
2023/08/02 01:15:16;;;;;;;;;;;;;;;;;;1291466;22;19919;-83
2023/08/02 01:15:46;;;;;;;;;;;;;;;;;;1289028;22;20344;-83
2023/08/02 01:16:16;;;;;;;;;;;;;;;;;;1290044;23;20343;-83
2023/08/02 01:16:47;;;;;;;;;;;;;;;;;;1290715;23;20329;-83
2023/08/02 01:17:17;;;;;;;;;;;;;;;;;;1290559;22;19904;-84
2023/08/02 01:19:07;;;;;;;;;;;;;;;;;;1266742;22;19921;-79
2023/08/02 01:19:38;;;;;;;;;;;;;;;;;;1291419;23;20359;-79
2023/08/02 01:20:08;;;;;;;;;;;;;;;;;;1291253;23;20357;-79
2023/08/02 01:20:38;;;;;;;;;;;;;;;;;;1290825;23;19911;-79
2023/08/02 01:21:08;;;;;;;;;;;;;;;;;;1291164;23;20399;-80
2023/08/02 01:21:39;;;;;;;;;;;;;;;;;;1290835;23;19935;-79
2023/08/02 01:22:09;;;;;;;;;;;;;;;;;;1288980;22;19903;-83
2023/08/02 01:22:39;;;;;;;;;;;;;;;;;;1291357;23;19950;-83
2023/08/02 01:23:09;;;;;;;;;;;;;;;;;;1291410;23;20010;-82
2023/08/02 01:23:39;;;;;;;;;;;;;;;;;;1291107;23;19903;-82
2023/08/02 01:24:10;;;;;;;;;;;;;;;;;;1291362;23;19990;-83
2023/08/02 01:24:40;;;;;;;;;;;;;;;;;;1291462;22;19910;-82
2023/08/02 01:25:10;;;;;;;;;;;;;;;;;;1291252;22;19903;-82
2023/08/02 01:25:40;;;;;;;;;;;;;;;;;;1291498;22;19935;-83
2023/08/02 01:26:11;;;;;;;;;;;;;;;;;;1290828;22;19918;-82
2023/08/02 01:26:41;;;;;;;;;;;;;;;;;;1291027;22;19986;-82
2023/08/02 01:27:11;;;;;;;;;;;;;;;;;;1290998;23;19904;-82
2023/08/02 01:27:41;;;;;;;;;;;;;;;;;;1290941;22;19907;-82
2023/08/02 01:28:12;;;;;;;;;;;;;;;;;;1290956;23;19911;-82
2023/08/02 01:28:42;;;;;;;;;;;;;;;;;;1291115;23;19912;-82
2023/08/02 01:29:12;;;;;;;;;;;;;;;;;;1290977;23;19953;-82
2023/08/02 01:29:42;;;;;;;;;;;;;;;;;;1290854;23;19912;-82
2023/08/02 01:30:13;;;;;;;;;;;;;;;;;;1284521;23;20088;-82
2023/08/02 01:30:43;;;;;;;;;;;;;;;;;;1284652;23;19948;-82
2023/08/02 01:31:13;;;;;;;;;;;;;;;;;;1284353;23;19931;-82
2023/08/02 01:31:43;;;;;;;;;;;;;;;;;;1284543;23;20345;-83
2023/08/02 01:32:14;;;;;;;;;;;;;;;;;;1284454;23;19911;-83
2023/08/02 01:32:44;;;;;;;;;;;;;;;;;;1284661;23;20244;-82
2023/08/02 01:33:14;;;;;;;;;;;;;;;;;;1290593;23;20351;-82
2023/08/02 01:33:45;;;;;;;;;;;;;;;;;;1290756;22;19907;-82
2023/08/02 01:34:15;;;;;;;;;;;;;;;;;;1290441;23;19915;-82
2023/08/02 01:34:45;;;;;;;;;;;;;;;;;;1291102;23;19916;-82
2023/08/02 01:35:15;;;;;;;;;;;;;;;;;;1290937;23;19912;-82
2023/08/02 01:35:46;;;;;;;;;;;;;;;;;;1291492;22;19973;-82
2023/08/02 01:36:16;;;;;;;;;;;;;;;;;;1293072;23;19906;-82
2023/08/02 01:36:46;;;;;;;;;;;;;;;;;;1291283;23;19978;-83
2023/08/02 01:37:16;;;;;;;;;;;;;;;;;;1291186;23;19982;-83
2023/08/02 01:37:48;;;;;;;;;;;;;;;;;;1291173;23;19907;-82
2023/08/02 01:38:18;;;;;;;;;;;;;;;;;;1291128;23;19903;-82
2023/08/02 01:38:48;;;;;;;;;;;;;;;;;;1291658;22;20344;-82
2023/08/02 01:39:19;;;;;;;;;;;;;;;;;;1291645;22;19927;-82
2023/08/02 01:39:49;;;;;;;;;;;;;;;;;;1291635;22;20305;-82
2023/08/02 01:40:19;;;;;;;;;;;;;;;;;;1291760;22;20338;-82
2023/08/02 01:40:49;;;;;;;;;;;;;;;;;;1291987;22;20286;-82
2023/08/02 01:41:20;;;;;;;;;;;;;;;;;;1291452;22;19911;-83
2023/08/02 01:41:50;;;;;;;;;;;;;;;;;;1291264;23;19954;-82
2023/08/02 01:42:20;;;;;;;;;;;;;;;;;;1291493;23;19912;-82
2023/08/02 01:43:29;;;;;;;;;;;;;;;;;;1259613;23;20235;-79
2023/08/02 01:44:29;;;;;;;;;;;;;;;;;;1265458;23;20187;-83
2023/08/02 01:45:00;;;;;;;;;;;;;;;;;;1291127;23;19912;-83
2023/08/02 01:45:30;;;;;;;;;;;;;;;;;;1291780;23;19986;-83
2023/08/02 01:46:00;;;;;;;;;;;;;;;;;;1291132;23;19904;-83
2023/08/02 01:46:30;;;;;;;;;;;;;;;;;;1291505;23;19912;-83
2023/08/02 01:47:01;;;;;;;;;;;;;;;;;;1292006;23;19911;-83
2023/08/02 01:47:31;;;;;;;;;;;;;;;;;;1276318;23;19911;-83
2023/08/02 01:48:01;;;;;;;;;;;;;;;;;;1265587;23;19927;-83
2023/08/02 01:48:32;;;;;;;;;;;;;;;;;;1254059;23;20262;-83
2023/08/02 01:49:02;;;;;;;;;;;;;;;;;;1259662;23;19905;-83
2023/08/02 01:49:32;;;;;;;;;;;;;;;;;;1259617;23;19906;-83
2023/08/02 01:50:02;;;;;;;;;;;;;;;;;;1259695;23;19944;-83
2023/08/02 01:50:32;;;;;;;;;;;;;;;;;;1265873;23;19908;-83
2023/08/02 01:51:03;;;;;;;;;;;;;;;;;;1266201;23;20408;-83
2023/08/02 01:51:33;;;;;;;;;;;;;;;;;;1266132;23;19905;-83
2023/08/02 01:52:03;;;;;;;;;;;;;;;;;;1266154;23;19905;-83
2023/08/02 01:52:34;;;;;;;;;;;;;;;;;;1266426;23;19912;-83
2023/08/02 01:53:04;;;;;;;;;;;;;;;;;;1270470;22;19904;-83
2023/08/02 01:53:34;;;;;;;;;;;;;;;;;;1270293;23;19915;-83
2023/08/02 01:54:04;;;;;;;;;;;;;;;;;;1267778;23;20341;-83
2023/08/02 01:54:35;;;;;;;;;;;;;;;;;;1266316;23;20003;-83
2023/08/02 01:55:05;;;;;;;;;;;;;;;;;;1265639;23;19940;-83
2023/08/02 01:55:35;;;;;;;;;;;;;;;;;;1265771;23;19905;-83
2023/08/02 01:56:05;;;;;;;;;;;;;;;;;;1265457;23;19905;-83
2023/08/02 01:56:35;;;;;;;;;;;;;;;;;;1266079;23;19958;-83
2023/08/02 01:57:06;;;;;;;;;;;;;;;;;;1265672;22;19955;-83
2023/08/02 01:57:36;;;;;;;;;;;;;;;;;;1265700;23;19936;-83
2023/08/02 01:58:06;;;;;;;;;;;;;;;;;;1265476;23;19952;-83
2023/08/02 01:58:36;;;;;;;;;;;;;;;;;;1265663;23;20311;-83
2023/08/02 01:59:07;;;;;;;;;;;;;;;;;;1265979;23;19928;-83
2023/08/02 01:59:37;;;;;;;;;;;;;;;;;;1265806;22;20211;-83
2023/08/02 02:00:07;;;;;;;;;;;;;;;;;;1265617;23;19913;-83
2023/08/02 02:00:37;;;;;;;;;;;;;;;;;;1265596;23;19905;-83
2023/08/02 02:01:07;;;;;;;;;;;;;;;;;;1265512;23;19905;-83
2023/08/02 02:01:38;;;;;;;;;;;;;;;;;;1265884;23;19905;-84
2023/08/02 02:02:08;;;;;;;;;;;;;;;;;;1265290;23;20042;-83
2023/08/02 02:02:38;;;;;;;;;;;;;;;;;;1265606;23;19912;-83
2023/08/02 02:03:09;;;;;;;;;;;;;;;;;;1265353;23;19905;-83
2023/08/02 02:03:39;;;;;;;;;;;;;;;;;;1259621;23;19912;-83
2023/08/02 02:04:10;;;;;;;;;;;;;;;;;;1279892;22;19905;-83
2023/08/02 02:05:20;;;;;;;;;;;;;;;;;;1275469;22;19911;-83
2023/08/02 02:05:50;;;;;;;;;;;;;;;;;;1265876;23;19913;-83
2023/08/02 02:06:21;;;;;;;;;;;;;;;;;;1266156;23;20333;-82
2023/08/02 02:08:52;;;;;;;;;;;;;;;;;;1277136;22;20305;-80
2023/08/02 02:09:22;;;;;;;;;;;;;;;;;;1291224;22;19973;-77
2023/08/02 02:09:52;;;;;;;;;;;;;;;;;;1290898;23;19994;-78
2023/08/02 02:10:22;;;;;;;;;;;;;;;;;;1291342;23;19911;-78
2023/08/02 02:10:53;;;;;;;;;;;;;;;;;;1267476;22;19963;-81
2023/08/02 02:11:23;;;;;;;;;;;;;;;;;;1259497;23;20000;-81
2023/08/02 02:11:53;;;;;;;;;;;;;;;;;;1259275;23;19905;-81
2023/08/02 02:12:23;;;;;;;;;;;;;;;;;;1261504;23;19906;-81
2023/08/02 02:12:53;;;;;;;;;;;;;;;;;;1265551;23;19909;-81
2023/08/02 02:13:24;;;;;;;;;;;;;;;;;;1265693;23;19912;-81
2023/08/02 02:13:54;;;;;;;;;;;;;;;;;;1265992;23;20335;-82
2023/08/02 02:14:24;;;;;;;;;;;;;;;;;;1265436;23;19991;-81
2023/08/02 02:14:55;;;;;;;;;;;;;;;;;;1265474;23;19929;-82
2023/08/02 02:15:25;;;;;;;;;;;;;;;;;;1265626;23;19928;-81
2023/08/02 02:15:55;;;;;;;;;;;;;;;;;;1265411;23;19909;-82
2023/08/02 02:16:25;;;;;;;;;;;;;;;;;;1265496;23;20362;-82
2023/08/02 02:16:56;;;;;;;;;;;;;;;;;;1265761;23;19921;-82
2023/08/02 02:17:26;;;;;;;;;;;;;;;;;;1266198;23;19905;-82
2023/08/02 02:17:56;;;;;;;;;;;;;;;;;;1266057;23;19905;-83
2023/08/02 02:18:26;;;;;;;;;;;;;;;;;;1267287;23;19904;-83
2023/08/02 02:18:56;;;;;;;;;;;;;;;;;;1266497;23;19912;-83
2023/08/02 02:19:27;;;;;;;;;;;;;;;;;;1265568;23;19924;-83
2023/08/02 02:19:57;;;;;;;;;;;;;;;;;;1259578;23;19905;-83
2023/08/02 02:20:27;;;;;;;;;;;;;;;;;;1259584;23;19988;-83
2023/08/02 02:20:57;;;;;;;;;;;;;;;;;;1259580;23;20222;-83
2023/08/02 02:21:28;;;;;;;;;;;;;;;;;;1265695;23;19912;-83
2023/08/02 02:21:58;;;;;;;;;;;;;;;;;;1266138;23;19905;-83
2023/08/02 02:22:28;;;;;;;;;;;;;;;;;;1265527;23;19909;-83
2023/08/02 02:22:58;;;;;;;;;;;;;;;;;;1265623;23;20392;-83
2023/08/02 02:23:29;;;;;;;;;;;;;;;;;;1266558;23;20298;-83
2023/08/02 02:23:59;;;;;;;;;;;;;;;;;;1267889;23;19905;-83
2023/08/02 02:24:29;;;;;;;;;;;;;;;;;;1265680;23;19905;-84
2023/08/02 02:24:59;;;;;;;;;;;;;;;;;;1267215;23;20285;-83
2023/08/02 02:25:30;;;;;;;;;;;;;;;;;;1265603;23;20400;-83
2023/08/02 02:26:00;;;;;;;;;;;;;;;;;;1265575;23;20199;-83
2023/08/02 02:26:30;;;;;;;;;;;;;;;;;;1265719;23;20396;-83
2023/08/02 02:27:00;;;;;;;;;;;;;;;;;;1265721;23;20253;-83
2023/08/02 02:27:30;;;;;;;;;;;;;;;;;;1266373;23;20322;-83
2023/08/02 02:28:01;;;;;;;;;;;;;;;;;;1265473;23;19940;-83
2023/08/02 02:28:31;;;;;;;;;;;;;;;;;;1265718;23;19905;-83
2023/08/02 02:29:01;;;;;;;;;;;;;;;;;;1265323;23;20265;-83
2023/08/02 02:29:31;;;;;;;;;;;;;;;;;;1265522;23;19970;-82
2023/08/02 02:30:02;;;;;;;;;;;;;;;;;;1265505;23;19905;-82
2023/08/02 02:30:32;;;;;;;;;;;;;;;;;;1265541;23;19996;-82
2023/08/02 02:31:02;;;;;;;;;;;;;;;;;;1259405;23;19997;-82
2023/08/02 02:31:32;;;;;;;;;;;;;;;;;;1259721;23;19912;-82
2023/08/02 02:32:03;;;;;;;;;;;;;;;;;;1259464;23;19912;-83
2023/08/02 02:32:33;;;;;;;;;;;;;;;;;;1259613;23;20008;-83
2023/08/02 02:33:04;;;;;;;;;;;;;;;;;;1265551;23;20227;-83
2023/08/02 02:33:34;;;;;;;;;;;;;;;;;;1265712;23;19905;-83
2023/08/02 02:34:05;;;;;;;;;;;;;;;;;;1265583;23;19912;-83
2023/08/02 02:34:35;;;;;;;;;;;;;;;;;;1265619;23;19943;-83
2023/08/02 02:35:05;;;;;;;;;;;;;;;;;;1265541;23;19992;-83
2023/08/02 02:35:35;;;;;;;;;;;;;;;;;;1265684;23;19959;-83
2023/08/02 02:36:06;;;;;;;;;;;;;;;;;;1265905;23;20289;-83
2023/08/02 02:36:38;;;;;;;;;;;;;;;;;;1265461;23;19905;-83
2023/08/02 02:37:08;;;;;;;;;;;;;;;;;;1265442;23;19905;-82
2023/08/02 02:37:38;;;;;;;;;;;;;;;;;;1265558;23;19909;-82
2023/08/02 02:38:08;;;;;;;;;;;;;;;;;;1265464;23;20353;-83
2023/08/02 02:38:39;;;;;;;;;;;;;;;;;;1265612;23;19911;-83
2023/08/02 02:39:09;;;;;;;;;;;;;;;;;;1265572;23;19995;-83
2023/08/02 02:39:39;;;;;;;;;;;;;;;;;;1266001;23;20362;-83
2023/08/02 02:40:09;;;;;;;;;;;;;;;;;;1265980;23;20415;-83
2023/08/02 02:40:40;;;;;;;;;;;;;;;;;;1265488;23;19991;-83
2023/08/02 02:41:10;;;;;;;;;;;;;;;;;;1265401;23;20043;-83
2023/08/02 02:41:40;;;;;;;;;;;;;;;;;;1265540;23;19905;-83
2023/08/02 02:42:10;;;;;;;;;;;;;;;;;;1268619;23;19952;-83
2023/08/02 02:44:35;;;;;;;;;;;;;;;;;;1259170;22;19921;-77
2023/08/02 02:45:05;;;;;;;;;;;;;;;;;;1265613;23;19995;-78
2023/08/02 02:45:35;;;;;;;;;;;;;;;;;;1265768;23;19905;-77
2023/08/02 02:46:05;;;;;;;;;;;;;;;;;;1265545;23;19920;-79
2023/08/02 02:46:35;;;;;;;;;;;;;;;;;;1265688;23;19944;-79
2023/08/02 02:47:06;;;;;;;;;;;;;;;;;;1265523;23;19917;-78
2023/08/02 02:47:36;;;;;;;;;;;;;;;;;;1265796;23;19909;-78
2023/08/02 02:48:06;;;;;;;;;;;;;;;;;;1265698;23;19905;-78
2023/08/02 02:48:36;;;;;;;;;;;;;;;;;;1265820;23;20317;-78
2023/08/02 02:49:07;;;;;;;;;;;;;;;;;;1265134;23;19976;-78
2023/08/02 02:49:37;;;;;;;;;;;;;;;;;;1265299;23;19955;-79
2023/08/02 02:50:07;;;;;;;;;;;;;;;;;;1265303;23;19905;-77
2023/08/02 02:50:37;;;;;;;;;;;;;;;;;;1265301;23;19997;-77
2023/08/02 02:51:08;;;;;;;;;;;;;;;;;;1265171;23;19904;-77
2023/08/02 02:51:38;;;;;;;;;;;;;;;;;;1265477;23;19912;-77
2023/08/02 02:52:09;;;;;;;;;;;;;;;;;;1265137;23;20337;-78
2023/08/02 02:52:43;;;;;;;;;;;;;;;;;;1265882;23;20000;-78
2023/08/02 02:53:13;;;;;;;;;;;;;;;;;;1265218;23;20377;-78
2023/08/02 02:53:43;;;;;;;;;;;;;;;;;;1265499;23;19913;-79
2023/08/02 02:54:13;;;;;;;;;;;;;;;;;;1265153;23;19948;-78
2023/08/02 02:54:43;;;;;;;;;;;;;;;;;;1265488;23;20003;-78
2023/08/02 02:55:14;;;;;;;;;;;;;;;;;;1265137;23;19980;-78
2023/08/02 02:55:44;;;;;;;;;;;;;;;;;;1265224;23;19995;-78
2023/08/02 02:56:14;;;;;;;;;;;;;;;;;;1258971;23;19905;-78
2023/08/02 02:56:44;;;;;;;;;;;;;;;;;;1259388;23;19909;-78
2023/08/02 02:57:15;;;;;;;;;;;;;;;;;;1259274;23;20300;-77
2023/08/02 02:57:45;;;;;;;;;;;;;;;;;;1259281;23;19909;-78
2023/08/02 02:58:15;;;;;;;;;;;;;;;;;;1265557;23;19913;-81
2023/08/02 02:58:45;;;;;;;;;;;;;;;;;;1265518;23;19913;-78
2023/08/02 02:59:16;;;;;;;;;;;;;;;;;;1265445;23;19939;-78
2023/08/02 02:59:46;;;;;;;;;;;;;;;;;;1265565;23;19909;-78
2023/08/02 03:00:16;;;;;;;;;;;;;;;;;;1265841;23;19951;-78
2023/08/02 03:00:46;;;;;;;;;;;;;;;;;;1266047;23;19909;-78
2023/08/02 03:01:17;;;;;;;;;;;;;;;;;;1265871;23;20225;-78
2023/08/02 03:01:47;;;;;;;;;;;;;;;;;;1265333;23;20277;-79
2023/08/02 03:02:17;;;;;;;;;;;;;;;;;;1265256;23;20011;-79
2023/08/02 03:02:48;;;;;;;;;;;;;;;;;;1265533;23;19925;-78
2023/08/02 03:03:18;;;;;;;;;;;;;;;;;;1265368;23;19911;-78
2023/08/02 03:03:48;;;;;;;;;;;;;;;;;;1265597;23;19916;-78
2023/08/02 03:04:18;;;;;;;;;;;;;;;;;;1265346;23;20297;-79
2023/08/02 03:04:49;;;;;;;;;;;;;;;;;;1259492;23;19913;-77
2023/08/02 03:05:19;;;;;;;;;;;;;;;;;;1265299;23;19983;-77
2023/08/02 03:05:49;;;;;;;;;;;;;;;;;;1265668;23;19992;-77
2023/08/02 03:06:19;;;;;;;;;;;;;;;;;;1265272;23;19905;-77
2023/08/02 03:06:50;;;;;;;;;;;;;;;;;;1265413;23;19989;-77
2023/08/02 03:07:20;;;;;;;;;;;;;;;;;;1258949;23;19909;-77
2023/08/02 03:07:50;;;;;;;;;;;;;;;;;;1265034;23;19909;-77
2023/08/02 03:08:20;;;;;;;;;;;;;;;;;;1259401;23;19905;-79
2023/08/02 03:08:51;;;;;;;;;;;;;;;;;;1259319;23;19909;-79
2023/08/02 03:09:21;;;;;;;;;;;;;;;;;;1259676;23;20471;-78
2023/08/02 03:09:51;;;;;;;;;;;;;;;;;;1259170;23;19951;-78
2023/08/02 03:10:21;;;;;;;;;;;;;;;;;;1265555;23;19905;-77
2023/08/02 03:10:52;;;;;;;;;;;;;;;;;;1259210;23;19910;-78
2023/08/02 03:11:23;;;;;;;;;;;;;;;;;;1259736;23;19905;-78
2023/08/02 03:11:53;;;;;;;;;;;;;;;;;;1265395;23;19905;-79
2023/08/02 03:12:23;;;;;;;;;;;;;;;;;;1265301;23;19909;-77
2023/08/02 03:12:54;;;;;;;;;;;;;;;;;;1265276;23;19905;-77
2023/08/02 03:13:24;;;;;;;;;;;;;;;;;;1265692;23;20301;-78
2023/08/02 03:13:54;;;;;;;;;;;;;;;;;;1265435;23;19905;-79
2023/08/02 03:14:24;;;;;;;;;;;;;;;;;;1265657;23;19905;-79
2023/08/02 03:14:54;;;;;;;;;;;;;;;;;;1265822;23;19928;-79
2023/08/02 03:15:25;;;;;;;;;;;;;;;;;;1265517;23;19999;-79
2023/08/02 03:15:55;;;;;;;;;;;;;;;;;;1265404;23;19909;-78
2023/08/02 03:16:25;;;;;;;;;;;;;;;;;;1265580;23;19909;-79
2023/08/02 03:16:56;;;;;;;;;;;;;;;;;;1265282;23;20361;-79
2023/08/02 03:17:27;;;;;;;;;;;;;;;;;;1270963;22;19925;-78
2023/08/02 03:17:57;;;;;;;;;;;;;;;;;;1291167;23;19911;-77
2023/08/02 03:18:28;;;;;;;;;;;;;;;;;;1291423;23;19950;-78
2023/08/02 03:18:58;;;;;;;;;;;;;;;;;;1291185;23;19904;-78
2023/08/02 03:19:28;;;;;;;;;;;;;;;;;;1291714;23;19903;-79
2023/08/02 03:19:58;;;;;;;;;;;;;;;;;;1291584;23;19904;-79
2023/08/02 03:20:28;;;;;;;;;;;;;;;;;;1291668;22;19903;-77
2023/08/02 03:20:59;;;;;;;;;;;;;;;;;;1291502;23;20313;-77
2023/08/02 03:21:29;;;;;;;;;;;;;;;;;;1291643;23;19990;-77
2023/08/02 03:21:59;;;;;;;;;;;;;;;;;;1290865;23;19910;-77
2023/08/02 03:22:30;;;;;;;;;;;;;;;;;;1291386;23;19904;-78
2023/08/02 03:23:00;;;;;;;;;;;;;;;;;;1289557;22;20272;-79
2023/08/02 03:23:30;;;;;;;;;;;;;;;;;;1287749;22;19907;-79
2023/08/02 03:24:33;;;;;;;;;;;;;;;;;;1266182;23;20304;-80
2023/08/02 03:25:03;;;;;;;;;;;;;;;;;;1265434;23;19986;-78
2023/08/02 03:25:33;;;;;;;;;;;;;;;;;;1266093;23;19912;-78
2023/08/02 03:26:03;;;;;;;;;;;;;;;;;;1265644;23;19904;-79
2023/08/02 03:26:34;;;;;;;;;;;;;;;;;;1265992;23;19912;-78
2023/08/02 03:27:04;;;;;;;;;;;;;;;;;;1265762;23;19905;-79
2023/08/02 03:27:34;;;;;;;;;;;;;;;;;;1265594;23;19905;-78
2023/08/02 03:28:04;;;;;;;;;;;;;;;;;;1265732;23;19988;-78
2023/08/02 03:28:35;;;;;;;;;;;;;;;;;;1265758;23;19912;-79
2023/08/02 03:29:05;;;;;;;;;;;;;;;;;;1265427;23;19968;-79
2023/08/02 03:29:36;;;;;;;;;;;;;;;;;;1265994;23;19974;-80
2023/08/02 03:30:06;;;;;;;;;;;;;;;;;;1265083;23;19995;-79
2023/08/02 03:30:37;;;;;;;;;;;;;;;;;;1264935;23;19905;-77
2023/08/02 03:31:07;;;;;;;;;;;;;;;;;;1264625;23;20257;-78
2023/08/02 03:31:37;;;;;;;;;;;;;;;;;;1265075;23;19905;-79
2023/08/02 03:32:08;;;;;;;;;;;;;;;;;;1265547;23;19951;-78
2023/08/02 03:32:38;;;;;;;;;;;;;;;;;;1266073;23;19905;-78
2023/08/02 03:33:08;;;;;;;;;;;;;;;;;;1265559;23;19912;-78
2023/08/02 03:33:38;;;;;;;;;;;;;;;;;;1265379;23;19905;-79
2023/08/02 03:34:08;;;;;;;;;;;;;;;;;;1265218;23;20502;-80
2023/08/02 03:34:39;;;;;;;;;;;;;;;;;;1265509;23;19928;-78
2023/08/02 03:35:09;;;;;;;;;;;;;;;;;;1265456;23;19980;-79
2023/08/02 03:35:39;;;;;;;;;;;;;;;;;;1265400;23;19962;-79
2023/08/02 03:36:09;;;;;;;;;;;;;;;;;;1265346;23;20317;-78